sensor_id;sensor_type;location;lat;lon;timestamp;pressure;altitude;pressure_sealevel;temperature;humidity
72925;BME280;61070;50.794;7.054;2022-08-21T00:01:19;101126.81;;;18.17;64.71
72925;BME280;61070;50.794;7.054;2022-08-21T00:03:46;101118.97;;;18.11;64.56
72925;BME280;61070;50.794;7.054;2022-08-21T00:06:12;101124.63;;;18.03;65.05
72925;BME280;61070;50.794;7.054;2022-08-21T00:08:37;101120.22;;;18.00;65.36
72925;BME280;61070;50.794;7.054;2022-08-21T00:11:04;101116.66;;;18.01;65.83
72925;BME280;61070;50.794;7.054;2022-08-21T00:13:29;101117.59;;;17.99;66.08
72925;BME280;61070;50.794;7.054;2022-08-21T00:15:55;101116.09;;;17.92;65.62
72925;BME280;61070;50.794;7.054;2022-08-21T00:18:20;101116.19;;;17.89;65.30
72925;BME280;61070;50.794;7.054;2022-08-21T00:20:46;101112.03;;;17.80;65.29
72925;BME280;61070;50.794;7.054;2022-08-21T00:23:11;101109.09;;;17.61;64.81
72925;BME280;61070;50.794;7.054;2022-08-21T00:25:38;101115.91;;;17.45;65.52
72925;BME280;61070;50.794;7.054;2022-08-21T00:28:04;101114.50;;;17.33;66.09
72925;BME280;61070;50.794;7.054;2022-08-21T00:30:30;101106.63;;;17.29;66.50
72925;BME280;61070;50.794;7.054;2022-08-21T00:32:57;101105.78;;;17.27;66.25
72925;BME280;61070;50.794;7.054;2022-08-21T00:35:30;101105.97;;;17.21;66.19
72925;BME280;61070;50.794;7.054;2022-08-21T00:37:57;101107.72;;;17.23;66.09
72925;BME280;61070;50.794;7.054;2022-08-21T00:40:34;101110.38;;;17.23;66.57
72925;BME280;61070;50.794;7.054;2022-08-21T00:43:03;101105.03;;;17.23;66.50
72925;BME280;61070;50.794;7.054;2022-08-21T00:45:28;101111.34;;;17.21;66.63
72925;BME280;61070;50.794;7.054;2022-08-21T00:47:55;101106.91;;;17.20;66.49
72925;BME280;61070;50.794;7.054;2022-08-21T00:50:22;101108.00;;;17.14;66.56
72925;BME280;61070;50.794;7.054;2022-08-21T00:52:50;101110.19;;;17.01;66.75
72925;BME280;61070;50.794;7.054;2022-08-21T00:55:16;101104.91;;;16.98;66.99
72925;BME280;61070;50.794;7.054;2022-08-21T00:57:45;101109.59;;;16.92;67.46
72925;BME280;61070;50.794;7.054;2022-08-21T01:00:15;101111.53;;;16.86;67.50
72925;BME280;61070;50.794;7.054;2022-08-21T01:02:42;101107.50;;;16.73;68.20
72925;BME280;61070;50.794;7.054;2022-08-21T01:05:07;101100.34;;;16.74;67.98
72925;BME280;61070;50.794;7.054;2022-08-21T01:07:33;101116.31;;;16.77;67.96
72925;BME280;61070;50.794;7.054;2022-08-21T01:09:59;101107.38;;;16.78;67.93
72925;BME280;61070;50.794;7.054;2022-08-21T01:12:25;101109.13;;;16.79;67.86
72925;BME280;61070;50.794;7.054;2022-08-21T01:14:51;101102.91;;;16.78;68.30
72925;BME280;61070;50.794;7.054;2022-08-21T01:17:17;101107.16;;;16.84;68.09
72925;BME280;61070;50.794;7.054;2022-08-21T01:19:44;101108.84;;;16.88;67.60
72925;BME280;61070;50.794;7.054;2022-08-21T01:22:09;101113.34;;;16.86;68.05
72925;BME280;61070;50.794;7.054;2022-08-21T01:24:35;101108.00;;;16.86;68.20
72925;BME280;61070;50.794;7.054;2022-08-21T01:27:00;101108.97;;;16.83;68.15
72925;BME280;61070;50.794;7.054;2022-08-21T01:29:55;101108.19;;;16.80;67.87
72925;BME280;61070;50.794;7.054;2022-08-21T01:32:23;101112.50;;;16.84;68.00
72925;BME280;61070;50.794;7.054;2022-08-21T01:34:50;101106.50;;;16.77;67.63
72925;BME280;61070;50.794;7.054;2022-08-21T01:37:17;101108.53;;;16.69;67.95
72925;BME280;61070;50.794;7.054;2022-08-21T01:39:42;101109.47;;;16.67;67.65
72925;BME280;61070;50.794;7.054;2022-08-21T01:42:08;101106.03;;;16.62;67.89
72925;BME280;61070;50.794;7.054;2022-08-21T01:44:34;101110.72;;;16.53;67.96
72925;BME280;61070;50.794;7.054;2022-08-21T01:47:04;101109.19;;;16.46;68.20
72925;BME280;61070;50.794;7.054;2022-08-21T01:49:30;101107.59;;;16.39;68.86
72925;BME280;61070;50.794;7.054;2022-08-21T01:51:56;101103.38;;;16.32;69.02
72925;BME280;61070;50.794;7.054;2022-08-21T01:54:21;101101.06;;;16.18;69.17
72925;BME280;61070;50.794;7.054;2022-08-21T01:56:48;101103.88;;;16.14;69.45
72925;BME280;61070;50.794;7.054;2022-08-21T01:59:15;101098.88;;;16.01;70.44
72925;BME280;61070;50.794;7.054;2022-08-21T02:01:40;101104.78;;;15.82;71.80
72925;BME280;61070;50.794;7.054;2022-08-21T02:04:07;101098.84;;;15.70;71.56
72925;BME280;61070;50.794;7.054;2022-08-21T02:06:33;101107.13;;;15.60;72.00
72925;BME280;61070;50.794;7.054;2022-08-21T02:08:58;101103.44;;;15.65;71.48
72925;BME280;61070;50.794;7.054;2022-08-21T02:11:23;101095.47;;;15.64;71.21
72925;BME280;61070;50.794;7.054;2022-08-21T02:13:49;101101.84;;;15.57;71.54
72925;BME280;61070;50.794;7.054;2022-08-21T02:16:14;101102.84;;;15.53;71.76
72925;BME280;61070;50.794;7.054;2022-08-21T02:18:40;101102.75;;;15.56;71.80
72925;BME280;61070;50.794;7.054;2022-08-21T02:21:05;101100.00;;;15.59;71.67
72925;BME280;61070;50.794;7.054;2022-08-21T02:23:31;101096.44;;;15.60;71.65
72925;BME280;61070;50.794;7.054;2022-08-21T02:25:59;101091.97;;;15.60;71.67
72925;BME280;61070;50.794;7.054;2022-08-21T02:28:25;101102.69;;;15.59;71.59
72925;BME280;61070;50.794;7.054;2022-08-21T02:30:51;101096.41;;;15.63;71.92
72925;BME280;61070;50.794;7.054;2022-08-21T02:33:17;101090.19;;;15.59;72.04
72925;BME280;61070;50.794;7.054;2022-08-21T02:35:43;101094.72;;;15.57;72.31
72925;BME280;61070;50.794;7.054;2022-08-21T02:38:12;101096.50;;;15.57;72.54
72925;BME280;61070;50.794;7.054;2022-08-21T02:40:40;101093.09;;;15.52;72.78
72925;BME280;61070;50.794;7.054;2022-08-21T02:43:07;101095.78;;;15.50;72.53
72925;BME280;61070;50.794;7.054;2022-08-21T02:45:34;101091.25;;;15.54;72.33
72925;BME280;61070;50.794;7.054;2022-08-21T02:48:04;101096.66;;;15.51;72.66
72925;BME280;61070;50.794;7.054;2022-08-21T02:50:36;101094.03;;;15.49;72.31
72925;BME280;61070;50.794;7.054;2022-08-21T02:53:03;101092.50;;;15.39;72.76
72925;BME280;61070;50.794;7.054;2022-08-21T02:55:30;101088.41;;;15.26;73.40
72925;BME280;61070;50.794;7.054;2022-08-21T02:57:57;101088.53;;;15.21;73.38
72925;BME280;61070;50.794;7.054;2022-08-21T03:00:25;101090.50;;;15.13;73.56
72925;BME280;61070;50.794;7.054;2022-08-21T03:02:51;101087.16;;;15.03;74.10
72925;BME280;61070;50.794;7.054;2022-08-21T03:05:17;101091.75;;;14.98;74.16
72925;BME280;61070;50.794;7.054;2022-08-21T03:07:44;101090.00;;;14.97;73.98
72925;BME280;61070;50.794;7.054;2022-08-21T03:10:10;101085.59;;;14.95;74.15
72925;BME280;61070;50.794;7.054;2022-08-21T03:12:36;101098.97;;;14.93;73.94
72925;BME280;61070;50.794;7.054;2022-08-21T03:15:09;101082.06;;;14.93;73.60
72925;BME280;61070;50.794;7.054;2022-08-21T03:17:34;101082.16;;;14.90;74.02
72925;BME280;61070;50.794;7.054;2022-08-21T03:20:00;101083.16;;;14.85;73.90
72925;BME280;61070;50.794;7.054;2022-08-21T03:22:27;101078.66;;;14.88;74.02
72925;BME280;61070;50.794;7.054;2022-08-21T03:24:52;101082.44;;;14.77;74.36
72925;BME280;61070;50.794;7.054;2022-08-21T03:27:18;101078.78;;;14.81;74.25
72925;BME280;61070;50.794;7.054;2022-08-21T03:29:43;101072.91;;;14.67;74.95
72925;BME280;61070;50.794;7.054;2022-08-21T03:32:09;101083.59;;;14.66;75.09
72925;BME280;61070;50.794;7.054;2022-08-21T03:34:36;101083.56;;;14.67;74.94
72925;BME280;61070;50.794;7.054;2022-08-21T03:37:03;101086.13;;;14.73;74.64
72925;BME280;61070;50.794;7.054;2022-08-21T03:39:29;101088.84;;;14.69;75.10
72925;BME280;61070;50.794;7.054;2022-08-21T03:41:54;101085.25;;;14.73;74.81
72925;BME280;61070;50.794;7.054;2022-08-21T03:44:19;101086.13;;;14.72;74.74
72925;BME280;61070;50.794;7.054;2022-08-21T03:46:45;101097.81;;;14.66;75.21
72925;BME280;61070;50.794;7.054;2022-08-21T03:49:10;101088.84;;;14.69;74.78
72925;BME280;61070;50.794;7.054;2022-08-21T03:51:35;101090.63;;;14.70;74.89
72925;BME280;61070;50.794;7.054;2022-08-21T03:54:01;101088.91;;;14.67;74.72
72925;BME280;61070;50.794;7.054;2022-08-21T03:56:26;101095.28;;;14.60;74.86
72925;BME280;61070;50.794;7.054;2022-08-21T03:58:52;101098.28;;;14.45;75.43
72925;BME280;61070;50.794;7.054;2022-08-21T04:01:17;101100.84;;;14.49;75.36
72925;BME280;61070;50.794;7.054;2022-08-21T04:03:42;101094.63;;;14.49;75.17
72925;BME280;61070;50.794;7.054;2022-08-21T04:06:08;101091.25;;;14.41;75.23
72925;BME280;61070;50.794;7.054;2022-08-21T04:08:34;101098.28;;;14.45;75.39
72925;BME280;61070;50.794;7.054;2022-08-21T04:11:00;101097.47;;;14.40;75.39
72925;BME280;61070;50.794;7.054;2022-08-21T04:13:26;101096.66;;;14.36;75.57
72925;BME280;61070;50.794;7.054;2022-08-21T04:15:53;101098.47;;;14.34;75.96
72925;BME280;61070;50.794;7.054;2022-08-21T04:18:19;101101.94;;;14.39;75.66
72925;BME280;61070;50.794;7.054;2022-08-21T04:20:46;101098.28;;;14.43;74.96
72925;BME280;61070;50.794;7.054;2022-08-21T04:23:12;101102.75;;;14.43;75.71
72925;BME280;61070;50.794;7.054;2022-08-21T04:25:38;101104.44;;;14.47;75.35
72925;BME280;61070;50.794;7.054;2022-08-21T04:28:03;101107.91;;;14.52;75.07
72925;BME280;61070;50.794;7.054;2022-08-21T04:30:29;101109.69;;;14.51;75.40
72925;BME280;61070;50.794;7.054;2022-08-21T04:32:56;101106.19;;;14.48;75.45
72925;BME280;61070;50.794;7.054;2022-08-21T04:35:22;101104.41;;;14.50;75.37
72925;BME280;61070;50.794;7.054;2022-08-21T04:37:49;101109.94;;;14.38;76.49
72925;BME280;61070;50.794;7.054;2022-08-21T04:40:16;101104.56;;;14.41;76.06
72925;BME280;61070;50.794;7.054;2022-08-21T04:42:44;101109.84;;;14.42;76.11
72925;BME280;61070;50.794;7.054;2022-08-21T04:45:23;101111.59;;;14.45;75.96
72925;BME280;61070;50.794;7.054;2022-08-21T04:47:53;101111.53;;;14.48;76.24
72925;BME280;61070;50.794;7.054;2022-08-21T04:50:23;101112.41;;;14.48;76.06
72925;BME280;61070;50.794;7.054;2022-08-21T04:52:49;101111.50;;;14.49;76.00
72925;BME280;61070;50.794;7.054;2022-08-21T04:55:16;101113.09;;;14.58;75.83
72925;BME280;61070;50.794;7.054;2022-08-21T04:57:43;101116.75;;;14.54;75.60
72925;BME280;61070;50.794;7.054;2022-08-21T05:00:10;101118.47;;;14.56;75.36
72925;BME280;61070;50.794;7.054;2022-08-21T05:02:38;101117.63;;;14.54;75.64
72925;BME280;61070;50.794;7.054;2022-08-21T05:05:04;101123.06;;;14.50;75.88
72925;BME280;61070;50.794;7.054;2022-08-21T05:07:31;101119.25;;;14.60;75.38
72925;BME280;61070;50.794;7.054;2022-08-21T05:09:58;101124.47;;;14.66;75.23
72925;BME280;61070;50.794;7.054;2022-08-21T05:12:24;101133.31;;;14.68;75.20
72925;BME280;61070;50.794;7.054;2022-08-21T05:14:50;101138.66;;;14.68;75.68
72925;BME280;61070;50.794;7.054;2022-08-21T05:17:15;101138.69;;;14.67;75.01
72925;BME280;61070;50.794;7.054;2022-08-21T05:19:40;101148.22;;;14.78;75.37
72925;BME280;61070;50.794;7.054;2022-08-21T05:22:06;101144.06;;;14.65;75.78
72925;BME280;61070;50.794;7.054;2022-08-21T05:24:32;101141.47;;;14.62;76.46
72925;BME280;61070;50.794;7.054;2022-08-21T05:26:58;101148.47;;;14.66;76.28
72925;BME280;61070;50.794;7.054;2022-08-21T05:29:23;101145.06;;;14.61;76.51
72925;BME280;61070;50.794;7.054;2022-08-21T05:31:49;101149.25;;;14.71;75.84
72925;BME280;61070;50.794;7.054;2022-08-21T05:34:18;101147.25;;;14.81;75.29
72925;BME280;61070;50.794;7.054;2022-08-21T05:36:44;101147.19;;;14.85;75.29
72925;BME280;61070;50.794;7.054;2022-08-21T05:39:10;101136.44;;;14.89;75.22
72925;BME280;61070;50.794;7.054;2022-08-21T05:41:35;101148.56;;;15.02;74.76
72925;BME280;61070;50.794;7.054;2022-08-21T05:44:01;101146.19;;;14.90;75.76
72925;BME280;61070;50.794;7.054;2022-08-21T05:46:26;101137.56;;;15.15;74.78
72925;BME280;61070;50.794;7.054;2022-08-21T05:48:51;101129.81;;;15.05;75.10
72925;BME280;61070;50.794;7.054;2022-08-21T05:51:17;101135.66;;;15.22;74.55
72925;BME280;61070;50.794;7.054;2022-08-21T05:53:44;101139.63;;;15.41;74.38
72925;BME280;61070;50.794;7.054;2022-08-21T05:56:10;101142.31;;;15.40;74.90
72925;BME280;61070;50.794;7.054;2022-08-21T05:58:36;101135.88;;;15.49;74.60
72925;BME280;61070;50.794;7.054;2022-08-21T06:01:03;101134.47;;;15.69;73.78
72925;BME280;61070;50.794;7.054;2022-08-21T06:03:31;101133.88;;;15.92;73.38
72925;BME280;61070;50.794;7.054;2022-08-21T06:05:56;101130.00;;;16.04;73.07
72925;BME280;61070;50.794;7.054;2022-08-21T06:08:23;101139.47;;;16.16;73.26
72925;BME280;61070;50.794;7.054;2022-08-21T06:10:50;101136.28;;;16.34;72.73
72925;BME280;61070;50.794;7.054;2022-08-21T06:13:17;101132.31;;;16.47;72.25
72925;BME280;61070;50.794;7.054;2022-08-21T06:15:43;101142.81;;;16.55;71.77
72925;BME280;61070;50.794;7.054;2022-08-21T06:18:08;101141.13;;;16.82;70.39
72925;BME280;61070;50.794;7.054;2022-08-21T06:20:34;101137.47;;;16.55;71.03
72925;BME280;61070;50.794;7.054;2022-08-21T06:22:59;101136.94;;;16.73;70.91
72925;BME280;61070;50.794;7.054;2022-08-21T06:25:25;101135.44;;;16.93;70.41
72925;BME280;61070;50.794;7.054;2022-08-21T06:27:51;101130.91;;;16.95;69.79
72925;BME280;61070;50.794;7.054;2022-08-21T06:30:17;101130.47;;;17.08;69.57
72925;BME280;61070;50.794;7.054;2022-08-21T06:32:42;101128.19;;;17.24;68.77
72925;BME280;61070;50.794;7.054;2022-08-21T06:35:08;101129.72;;;17.33;69.05
72925;BME280;61070;50.794;7.054;2022-08-21T06:37:34;101131.97;;;17.45;68.08
72925;BME280;61070;50.794;7.054;2022-08-21T06:39:59;101126.63;;;17.45;68.22
72925;BME280;61070;50.794;7.054;2022-08-21T06:42:25;101126.69;;;17.70;67.39
72925;BME280;61070;50.794;7.054;2022-08-21T06:44:51;101125.09;;;17.63;67.85
72925;BME280;61070;50.794;7.054;2022-08-21T06:47:17;101125.44;;;17.80;66.82
72925;BME280;61070;50.794;7.054;2022-08-21T06:49:42;101120.78;;;17.85;66.67
72925;BME280;61070;50.794;7.054;2022-08-21T06:52:12;101120.41;;;17.96;66.31
72925;BME280;61070;50.794;7.054;2022-08-21T06:54:38;101121.06;;;18.02;65.26
72925;BME280;61070;50.794;7.054;2022-08-21T06:57:04;101121.84;;;18.06;65.42
72925;BME280;61070;50.794;7.054;2022-08-21T06:59:30;101119.63;;;18.17;64.64
72925;BME280;61070;50.794;7.054;2022-08-21T07:01:55;101120.13;;;18.28;64.66
72925;BME280;61070;50.794;7.054;2022-08-21T07:04:21;101121.16;;;18.24;63.78
72925;BME280;61070;50.794;7.054;2022-08-21T07:06:46;101129.56;;;18.62;63.07
72925;BME280;61070;50.794;7.054;2022-08-21T07:09:11;101123.34;;;18.38;62.90
72925;BME280;61070;50.794;7.054;2022-08-21T07:11:37;101124.38;;;18.34;63.12
72925;BME280;61070;50.794;7.054;2022-08-21T07:14:03;101119.38;;;18.48;63.11
72925;BME280;61070;50.794;7.054;2022-08-21T07:16:29;101124.34;;;18.82;62.28
72925;BME280;61070;50.794;7.054;2022-08-21T07:18:54;101121.91;;;18.76;61.78
72925;BME280;61070;50.794;7.054;2022-08-21T07:21:20;101125.91;;;18.88;61.71
72925;BME280;61070;50.794;7.054;2022-08-21T07:23:48;101125.75;;;18.93;61.13
72925;BME280;61070;50.794;7.054;2022-08-21T07:26:16;101126.00;;;19.08;61.00
72925;BME280;61070;50.794;7.054;2022-08-21T07:28:41;101131.22;;;19.11;60.92
72925;BME280;61070;50.794;7.054;2022-08-21T07:31:09;101121.19;;;19.16;59.99
72925;BME280;61070;50.794;7.054;2022-08-21T07:33:35;101118.13;;;19.04;60.24
72925;BME280;61070;50.794;7.054;2022-08-21T07:36:01;101121.25;;;19.15;60.17
72925;BME280;61070;50.794;7.054;2022-08-21T07:38:26;101123.16;;;19.33;59.60
72925;BME280;61070;50.794;7.054;2022-08-21T07:40:54;101123.97;;;19.35;58.59
72925;BME280;61070;50.794;7.054;2022-08-21T07:43:20;101124.69;;;19.40;58.83
72925;BME280;61070;50.794;7.054;2022-08-21T07:45:47;101129.53;;;19.53;58.05
72925;BME280;61070;50.794;7.054;2022-08-21T07:48:14;101132.81;;;19.61;57.97
72925;BME280;61070;50.794;7.054;2022-08-21T07:50:40;101128.31;;;19.61;57.17
72925;BME280;61070;50.794;7.054;2022-08-21T07:53:06;101119.72;;;19.73;57.12
72925;BME280;61070;50.794;7.054;2022-08-21T07:55:32;101117.06;;;19.94;56.28
72925;BME280;61070;50.794;7.054;2022-08-21T07:57:57;101111.22;;;20.03;56.01
72925;BME280;61070;50.794;7.054;2022-08-21T08:00:25;101112.00;;;19.86;56.16
72925;BME280;61070;50.794;7.054;2022-08-21T08:02:51;101106.22;;;19.95;55.82
72925;BME280;61070;50.794;7.054;2022-08-21T08:05:20;101113.19;;;19.99;55.41
72925;BME280;61070;50.794;7.054;2022-08-21T08:07:46;101125.63;;;20.02;55.13
72925;BME280;61070;50.794;7.054;2022-08-21T08:10:15;101114.41;;;20.13;54.10
72925;BME280;61070;50.794;7.054;2022-08-21T08:12:41;101117.31;;;20.08;54.34
72925;BME280;61070;50.794;7.054;2022-08-21T08:15:10;101117.41;;;20.25;54.40
72925;BME280;61070;50.794;7.054;2022-08-21T08:17:36;101120.47;;;20.36;54.12
72925;BME280;61070;50.794;7.054;2022-08-21T08:20:03;101114.88;;;20.61;53.93
72925;BME280;61070;50.794;7.054;2022-08-21T08:22:28;101113.78;;;20.66;53.08
72925;BME280;61070;50.794;7.054;2022-08-21T08:24:54;101115.38;;;20.88;52.56
72925;BME280;61070;50.794;7.054;2022-08-21T08:27:20;101117.28;;;20.68;52.63
72925;BME280;61070;50.794;7.054;2022-08-21T08:29:46;101116.25;;;20.89;52.50
72925;BME280;61070;50.794;7.054;2022-08-21T08:32:12;101104.72;;;21.04;51.29
72925;BME280;61070;50.794;7.054;2022-08-21T08:34:39;101103.94;;;21.02;51.51
72925;BME280;61070;50.794;7.054;2022-08-21T08:37:06;101104.41;;;21.29;51.46
72925;BME280;61070;50.794;7.054;2022-08-21T08:39:33;101100.66;;;21.33;50.94
72925;BME280;61070;50.794;7.054;2022-08-21T08:44:29;101101.38;;;21.18;50.80
72925;BME280;61070;50.794;7.054;2022-08-21T08:46:55;101098.38;;;21.24;50.95
72925;BME280;61070;50.794;7.054;2022-08-21T08:49:49;101092.56;;;21.50;50.58
72925;BME280;61070;50.794;7.054;2022-08-21T08:52:27;101088.91;;;21.51;49.22
72925;BME280;61070;50.794;7.054;2022-08-21T08:55:04;101097.09;;;21.50;49.67
72925;BME280;61070;50.794;7.054;2022-08-21T08:57:30;101084.81;;;21.44;49.23
72925;BME280;61070;50.794;7.054;2022-08-21T08:59:59;101086.94;;;21.55;49.53
72925;BME280;61070;50.794;7.054;2022-08-21T09:02:25;101087.16;;;21.85;48.63
72925;BME280;61070;50.794;7.054;2022-08-21T09:04:54;101074.78;;;21.98;48.14
72925;BME280;61070;50.794;7.054;2022-08-21T09:07:47;101080.59;;;21.91;48.46
72925;BME280;61070;50.794;7.054;2022-08-21T09:10:20;101076.22;;;21.88;48.24
72925;BME280;61070;50.794;7.054;2022-08-21T09:13:10;101070.84;;;21.88;48.23
72925;BME280;61070;50.794;7.054;2022-08-21T09:21:28;101065.09;;;22.60;47.26
72925;BME280;61070;50.794;7.054;2022-08-21T09:29:17;101062.94;;;22.83;45.58
72925;BME280;61070;50.794;7.054;2022-08-21T09:31:45;101059.19;;;22.70;45.90
72925;BME280;61070;50.794;7.054;2022-08-21T09:34:11;101062.34;;;22.78;45.58
72925;BME280;61070;50.794;7.054;2022-08-21T09:36:39;101062.59;;;23.05;45.01
72925;BME280;61070;50.794;7.054;2022-08-21T09:39:06;101058.91;;;22.74;45.70
72925;BME280;61070;50.794;7.054;2022-08-21T09:41:34;101064.59;;;23.17;44.81
72925;BME280;61070;50.794;7.054;2022-08-21T09:44:01;101061.28;;;23.12;45.10
72925;BME280;61070;50.794;7.054;2022-08-21T09:46:27;101065.66;;;23.14;44.75
72925;BME280;61070;50.794;7.054;2022-08-21T09:49:02;101063.75;;;23.01;44.68
72925;BME280;61070;50.794;7.054;2022-08-21T09:51:31;101055.72;;;22.83;45.44
72925;BME280;61070;50.794;7.054;2022-08-21T09:59:43;101030.19;;;23.65;43.70
72925;BME280;61070;50.794;7.054;2022-08-21T10:05:00;101030.28;;;23.63;43.81
72925;BME280;61070;50.794;7.054;2022-08-21T10:07:29;101038.06;;;23.53;43.30
72925;BME280;61070;50.794;7.054;2022-08-21T10:10:18;101018.75;;;24.04;42.23
72925;BME280;61070;50.794;7.054;2022-08-21T10:13:03;101012.56;;;24.02;42.00
72925;BME280;61070;50.794;7.054;2022-08-21T10:18:35;101005.09;;;24.34;41.67
72925;BME280;61070;50.794;7.054;2022-08-21T10:21:13;101012.38;;;24.48;40.97
72925;BME280;61070;50.794;7.054;2022-08-21T10:23:58;101014.09;;;24.49;40.75
72925;BME280;61070;50.794;7.054;2022-08-21T10:26:31;101009.66;;;24.48;40.56
72925;BME280;61070;50.794;7.054;2022-08-21T10:34:46;101008.09;;;24.85;39.47
72925;BME280;61070;50.794;7.054;2022-08-21T10:37:46;101002.03;;;24.67;39.47
72925;BME280;61070;50.794;7.054;2022-08-21T10:48:12;100992.53;;;25.15;38.72
72925;BME280;61070;50.794;7.054;2022-08-21T10:51:20;100987.53;;;25.74;37.18
72925;BME280;61070;50.794;7.054;2022-08-21T10:56:56;100990.34;;;25.86;37.50
72925;BME280;61070;50.794;7.054;2022-08-21T10:59:36;100983.97;;;26.49;36.66
72925;BME280;61070;50.794;7.054;2022-08-21T11:02:14;100978.84;;;26.57;36.73
72925;BME280;61070;50.794;7.054;2022-08-21T11:04:52;100977.47;;;26.75;36.49
72925;BME280;61070;50.794;7.054;2022-08-21T11:07:48;100972.22;;;26.85;36.11
72925;BME280;61070;50.794;7.054;2022-08-21T11:10:23;100968.13;;;26.43;36.66
72925;BME280;61070;50.794;7.054;2022-08-21T11:12:56;100976.47;;;26.52;36.91
72925;BME280;61070;50.794;7.054;2022-08-21T11:15:43;100974.78;;;26.13;37.67
72925;BME280;61070;50.794;7.054;2022-08-21T11:20:52;100970.53;;;25.58;38.02
72925;BME280;61070;50.794;7.054;2022-08-21T11:23:52;100973.19;;;25.85;37.75
72925;BME280;61070;50.794;7.054;2022-08-21T11:26:39;100968.34;;;26.27;37.06
72925;BME280;61070;50.794;7.054;2022-08-21T11:29:28;100969.31;;;26.38;36.68
72925;BME280;61070;50.794;7.054;2022-08-21T11:40:12;100950.59;;;26.94;34.84
72925;BME280;61070;50.794;7.054;2022-08-21T11:45:39;100951.31;;;26.61;35.03
72925;BME280;61070;50.794;7.054;2022-08-21T11:50:54;100959.69;;;26.82;34.91
72925;BME280;61070;50.794;7.054;2022-08-21T11:53:26;100947.94;;;26.82;33.90
72925;BME280;61070;50.794;7.054;2022-08-21T11:56:02;100950.84;;;27.15;34.00
72925;BME280;61070;50.794;7.054;2022-08-21T11:58:50;100941.25;;;27.34;33.81
72925;BME280;61070;50.794;7.054;2022-08-21T12:01:22;100947.25;;;27.61;33.20
72925;BME280;61070;50.794;7.054;2022-08-21T12:03:57;100933.94;;;27.23;34.42
72925;BME280;61070;50.794;7.054;2022-08-21T12:06:35;100942.19;;;27.10;35.27
72925;BME280;61070;50.794;7.054;2022-08-21T12:09:05;100938.22;;;26.90;35.64
72925;BME280;61070;50.794;7.054;2022-08-21T12:11:31;100929.88;;;27.40;33.69
72925;BME280;61070;50.794;7.054;2022-08-21T12:13:59;100931.22;;;27.23;33.86
72925;BME280;61070;50.794;7.054;2022-08-21T12:19:13;100936.16;;;26.70;34.51
72925;BME280;61070;50.794;7.054;2022-08-21T12:24:20;100932.69;;;27.27;32.91
72925;BME280;61070;50.794;7.054;2022-08-21T12:27:12;100922.91;;;27.13;32.11
72925;BME280;61070;50.794;7.054;2022-08-21T12:29:38;100921.06;;;27.25;32.71
72925;BME280;61070;50.794;7.054;2022-08-21T12:40:10;100919.84;;;27.40;33.13
72925;BME280;61070;50.794;7.054;2022-08-21T12:42:39;100922.50;;;27.53;32.99
72925;BME280;61070;50.794;7.054;2022-08-21T12:45:31;100909.59;;;27.33;33.34
72925;BME280;61070;50.794;7.054;2022-08-21T12:48:01;100917.22;;;27.16;33.74
72925;BME280;61070;50.794;7.054;2022-08-21T12:50:43;100919.69;;;26.95;33.06
72925;BME280;61070;50.794;7.054;2022-08-21T12:53:15;100913.06;;;27.35;33.00
72925;BME280;61070;50.794;7.054;2022-08-21T12:55:47;100920.47;;;181.20;33.03
72925;BME280;61070;50.794;7.054;2022-08-21T12:58:21;100910.00;;;27.62;32.43
72925;BME280;61070;50.794;7.054;2022-08-21T13:00:51;100911.72;;;27.63;32.45
72925;BME280;61070;50.794;7.054;2022-08-21T13:03:17;100915.38;;;27.28;33.10
72925;BME280;61070;50.794;7.054;2022-08-21T13:05:43;100908.84;;;27.31;33.28
72925;BME280;61070;50.794;7.054;2022-08-21T13:08:11;100903.53;;;27.51;33.16
72925;BME280;61070;50.794;7.054;2022-08-21T13:10:39;100908.75;;;27.43;33.23
72925;BME280;61070;50.794;7.054;2022-08-21T13:13:07;100893.69;;;27.84;33.42
72925;BME280;61070;50.794;7.054;2022-08-21T13:15:36;100898.91;;;27.98;31.99
72925;BME280;61070;50.794;7.054;2022-08-21T13:18:04;100898.09;;;28.41;31.33
72925;BME280;61070;50.794;7.054;2022-08-21T13:20:34;100897.84;;;28.44;31.62
72925;BME280;61070;50.794;7.054;2022-08-21T13:23:01;100905.03;;;28.45;31.10
72925;BME280;61070;50.794;7.054;2022-08-21T13:25:29;100893.75;;;28.38;31.14
72925;BME280;61070;50.794;7.054;2022-08-21T13:28:10;100882.59;;;29.06;30.87
72925;BME280;61070;50.794;7.054;2022-08-21T13:30:43;100901.13;;;29.02;30.59
72925;BME280;61070;50.794;7.054;2022-08-21T13:33:10;100893.31;;;28.33;31.21
72925;BME280;61070;50.794;7.054;2022-08-21T13:35:51;100886.50;;;28.60;30.76
72925;BME280;61070;50.794;7.054;2022-08-21T13:38:20;100884.19;;;28.55;30.43
72925;BME280;61070;50.794;7.054;2022-08-21T13:40:53;100890.19;;;28.70;31.22
72925;BME280;61070;50.794;7.054;2022-08-21T13:43:25;100880.84;;;28.84;30.39
72925;BME280;61070;50.794;7.054;2022-08-21T13:45:53;100890.53;;;28.77;30.95
72925;BME280;61070;50.794;7.054;2022-08-21T13:48:20;100886.47;;;28.28;31.94
72925;BME280;61070;50.794;7.054;2022-08-21T13:50:46;100891.34;;;27.79;32.31
72925;BME280;61070;50.794;7.054;2022-08-21T13:53:32;100880.03;;;28.06;31.55
72925;BME280;61070;50.794;7.054;2022-08-21T13:55:59;100877.13;;;27.98;32.19
72925;BME280;61070;50.794;7.054;2022-08-21T13:58:42;100881.03;;;28.17;32.63
72925;BME280;61070;50.794;7.054;2022-08-21T14:01:19;100885.34;;;28.19;32.35
72925;BME280;61070;50.794;7.054;2022-08-21T14:03:47;100889.47;;;28.02;32.88
72925;BME280;61070;50.794;7.054;2022-08-21T14:06:37;106794.84;;;28.17;32.55
72925;BME280;61070;50.794;7.054;2022-08-21T14:09:32;100885.78;;;28.58;31.92
72925;BME280;61070;50.794;7.054;2022-08-21T14:12:02;100886.47;;;28.17;31.91